Terminal Aerodrome Forecast
Issued by NWS

Current Version | Previous Version | Text Only | Print | Product List | Glossary On
Versions: 1 2 3 4 5 6 7 8 9 10 11 12 13 14 15 16 17 18 19 20 21
404
FTUS43 KDLH 062336
TAFHIB
TAF
KHIB 062336Z 0700/0724 14008KT P6SM -SN OVC045 WS020/23035KT
      TEMPO 0700/0703 3SM -SN OVC015
     FM070300 20008KT 3SM -SN OVC015 WS020/26040KT
     FM070900 23008KT 4SM -SN OVC015
     FM071300 25008KT 2SM -SN OVC008=

USA.gov is the U.S. government's official web portal to all federal, state and local government web resources and services.